createdAt,value
2019-02-17T00:00:34.313Z,45.10
2019-02-17T00:01:34.306Z,47.00
2019-02-17T00:02:34.299Z,48.20
2019-02-17T00:03:34.305Z,46.90
2019-02-17T00:04:34.271Z,46.30
2019-02-17T00:05:34.272Z,44.10
2019-02-17T00:06:34.242Z,45.20
2019-02-17T00:07:34.235Z,47.10
2019-02-17T00:08:34.221Z,46.80
2019-02-17T00:09:34.236Z,45.70
2019-02-17T00:10:34.235Z,44.60
2019-02-17T00:11:34.197Z,45.80
2019-02-17T00:12:34.178Z,45.00
2019-02-17T00:13:34.167Z,46.30
2019-02-17T00:14:34.155Z,46.60
2019-02-17T00:15:34.155Z,45.90
2019-02-17T00:16:34.165Z,47.60
2019-02-17T00:17:34.142Z,48.50
2019-02-17T00:18:34.112Z,46.60
2019-02-17T00:19:34.097Z,43.60
2019-02-17T00:20:34.093Z,44.80
2019-02-17T00:21:34.095Z,45.40
2019-02-17T00:22:34.080Z,45.90
2019-02-17T00:23:34.057Z,44.50
2019-02-17T00:24:34.046Z,42.60
2019-02-17T00:25:34.077Z,43.30
2019-02-17T00:26:34.077Z,45.20
2019-02-17T00:27:34.037Z,43.90
2019-02-17T00:28:34.032Z,44.40
2019-02-17T00:29:33.987Z,44.10
2019-02-17T00:30:33.983Z,42.60
2019-02-17T00:31:33.976Z,42.50
2019-02-17T00:32:33.991Z,45.00
2019-02-17T00:33:33.953Z,43.50
2019-02-17T00:34:33.964Z,44.80
2019-02-17T00:35:33.921Z,42.10
2019-02-17T00:36:33.910Z,41.80
2019-02-17T00:37:33.918Z,43.30
2019-02-17T00:38:33.894Z,45.00
2019-02-17T00:39:33.895Z,43.10
2019-02-17T00:40:33.873Z,42.40
2019-02-17T00:41:33.853Z,43.70
2019-02-17T00:42:33.853Z,41.60
2019-02-17T00:43:33.848Z,41.90
2019-02-17T00:44:33.830Z,41.60
2019-02-17T00:45:33.813Z,41.60
2019-02-17T00:46:33.801Z,41.80
2019-02-17T00:47:33.805Z,41.30
2019-02-17T00:48:33.799Z,41.50
2019-02-17T00:49:33.793Z,41.60
2019-02-17T00:50:33.764Z,40.20
2019-02-17T00:51:33.824Z,40.00
2019-02-17T00:52:33.734Z,43.30
2019-02-17T00:53:33.734Z,44.00
2019-02-17T00:54:33.719Z,40.00
2019-02-17T00:55:33.722Z,41.40
2019-02-17T00:56:33.688Z,41.60
2019-02-17T00:57:33.681Z,40.30
2019-02-17T00:58:33.672Z,41.50
2019-02-17T00:59:33.699Z,42.70
2019-02-17T01:00:33.643Z,38.60
2019-02-17T01:01:33.653Z,40.30
2019-02-17T01:02:33.657Z,39.20
2019-02-17T01:03:33.650Z,40.30
2019-02-17T01:04:33.607Z,40.50
2019-02-17T01:05:33.635Z,39.00
2019-02-17T01:06:33.590Z,38.10
2019-02-17T01:07:33.583Z,39.10
2019-02-17T01:08:33.602Z,39.60
2019-02-17T01:09:33.556Z,39.10
2019-02-17T01:10:33.562Z,39.20
2019-02-17T01:11:33.532Z,41.20
2019-02-17T01:12:33.521Z,36.90
2019-02-17T01:13:33.530Z,38.10
2019-02-17T01:14:33.502Z,38.80
2019-02-17T01:15:33.494Z,38.20
2019-02-17T01:16:33.549Z,39.30
2019-02-17T01:17:33.501Z,38.50
2019-02-17T01:18:33.453Z,38.50
2019-02-17T01:19:33.443Z,37.60
2019-02-17T01:20:33.435Z,36.00
2019-02-17T01:21:33.439Z,38.20
2019-02-17T01:22:33.451Z,34.20
2019-02-17T01:23:33.403Z,37.40
2019-02-17T01:24:33.402Z,37.10
2019-02-17T01:25:33.459Z,35.60
2019-02-17T01:26:33.372Z,37.60
2019-02-17T01:27:33.366Z,35.00
2019-02-17T01:28:33.358Z,36.90
2019-02-17T01:29:33.337Z,35.20
2019-02-17T01:30:33.314Z,35.10
2019-02-17T01:31:33.333Z,34.50
2019-02-17T01:32:33.326Z,36.50
2019-02-17T01:33:33.295Z,33.50
2019-02-17T01:34:33.285Z,35.00
2019-02-17T01:35:33.268Z,32.50
2019-02-17T01:36:33.274Z,34.20
2019-02-17T01:37:33.307Z,35.40
2019-02-17T01:38:33.245Z,33.00
2019-02-17T01:39:33.218Z,33.10
2019-02-17T01:40:33.242Z,34.40
2019-02-17T01:42:24.424Z,30.30
2019-02-17T01:43:24.419Z,34.90
2019-02-17T01:44:24.394Z,35.70
2019-02-17T01:45:24.393Z,40.50
2019-02-17T01:46:24.376Z,36.70
2019-02-17T01:47:24.374Z,38.40
2019-02-17T01:48:24.353Z,31.60
2019-02-17T01:49:24.350Z,33.00
2019-02-17T01:50:24.333Z,33.50
2019-02-17T01:51:24.322Z,32.60
2019-02-17T01:52:24.305Z,34.80
2019-02-17T01:53:24.319Z,33.50
2019-02-17T01:54:24.311Z,32.80
2019-02-17T01:55:24.290Z,34.60
2019-02-17T01:56:24.265Z,32.50
2019-02-17T01:57:24.267Z,33.10
2019-02-17T01:58:24.252Z,33.30
2019-02-17T01:59:30.704Z,32.60
2019-02-17T02:00:25.223Z,31.10
2019-02-17T02:01:24.278Z,32.10
2019-02-17T02:02:24.230Z,30.90
2019-02-17T02:03:24.185Z,28.70
2019-02-17T02:04:24.197Z,29.60
2019-02-17T02:05:24.172Z,28.10
2019-02-17T02:06:24.158Z,29.40
2019-02-17T02:07:24.150Z,30.30
2019-02-17T02:08:24.139Z,32.40
2019-02-17T02:09:24.146Z,31.70
2019-02-17T02:10:24.130Z,29.20
2019-02-17T02:11:24.109Z,31.20
2019-02-17T02:12:24.103Z,28.90
2019-02-17T02:13:24.088Z,31.30
2019-02-17T02:14:24.069Z,30.30
2019-02-17T02:15:31.154Z,29.70
2019-02-17T02:16:24.045Z,30.80
2019-02-17T02:17:24.042Z,28.70
2019-02-17T02:18:24.023Z,27.90
2019-02-17T02:19:24.023Z,29.60
2019-02-17T02:20:24.017Z,29.60
2019-02-17T02:21:23.994Z,28.50
2019-02-17T02:22:23.980Z,29.70
2019-02-17T02:23:23.982Z,28.80
2019-02-17T02:24:23.966Z,29.60
2019-02-17T02:25:23.975Z,28.00
2019-02-17T02:26:23.966Z,28.90
2019-02-17T02:27:23.936Z,26.80
2019-02-17T02:28:23.923Z,27.30
2019-02-17T02:29:23.903Z,28.90
2019-02-17T02:30:23.946Z,27.00
2019-02-17T02:31:23.897Z,27.20
2019-02-17T02:32:23.868Z,27.90
2019-02-17T02:33:23.860Z,29.50
2019-02-17T02:34:23.857Z,27.60
2019-02-17T02:35:23.833Z,28.90
2019-02-17T02:36:23.837Z,27.80
2019-02-17T02:37:23.820Z,25.70
2019-02-17T02:38:23.804Z,27.80
2019-02-17T02:39:23.789Z,25.00
2019-02-17T02:40:23.780Z,26.80
2019-02-17T02:41:33.943Z,25.80
2019-02-17T02:42:24.791Z,26.00
2019-02-17T02:43:23.778Z,27.20
2019-02-17T02:44:23.752Z,29.00
2019-02-17T02:45:23.744Z,26.90
2019-02-17T02:46:23.722Z,24.60
2019-02-17T02:47:31.079Z,26.40
2019-02-17T02:48:23.699Z,26.60
2019-02-17T02:49:23.688Z,26.20
2019-02-17T02:50:23.688Z,25.70
2019-02-17T02:51:23.691Z,26.60
2019-02-17T02:52:23.665Z,27.20
2019-02-17T02:53:23.645Z,25.80
2019-02-17T02:54:23.638Z,25.60
2019-02-17T02:55:23.620Z,27.70
2019-02-17T02:56:23.624Z,25.50
2019-02-17T02:57:23.600Z,27.20
2019-02-17T02:58:23.622Z,26.40
2019-02-17T02:59:23.575Z,27.20
2019-02-17T03:00:23.572Z,25.90
2019-02-17T03:01:23.562Z,26.00
2019-02-17T03:02:23.560Z,25.10
2019-02-17T03:03:23.537Z,25.80
2019-02-17T03:04:23.589Z,26.40
2019-02-17T03:05:23.510Z,26.40
2019-02-17T03:06:23.513Z,27.40
2019-02-17T03:07:23.509Z,30.10
2019-02-17T03:08:23.491Z,27.00
2019-02-17T03:09:23.489Z,27.40
2019-02-17T03:10:23.484Z,28.60
2019-02-17T03:11:23.455Z,26.80
2019-02-17T03:12:23.437Z,27.70
2019-02-17T03:13:23.441Z,28.60
2019-02-17T03:14:23.420Z,27.00
2019-02-17T03:15:23.407Z,26.60
2019-02-17T03:16:23.409Z,28.60
2019-02-17T03:17:23.394Z,25.60
2019-02-17T03:18:23.383Z,26.80
2019-02-17T03:19:23.384Z,26.00
2019-02-17T03:20:23.362Z,27.10
2019-02-17T03:21:23.373Z,27.70
2019-02-17T03:22:23.343Z,27.60
2019-02-17T03:23:31.211Z,26.70
2019-02-17T03:24:23.306Z,23.60
2019-02-17T03:25:23.350Z,26.30
2019-02-17T03:26:23.284Z,24.90
2019-02-17T03:27:23.274Z,27.30
2019-02-17T03:28:23.310Z,27.00
2019-02-17T03:29:23.271Z,25.80
2019-02-17T03:30:23.257Z,27.70
2019-02-17T03:31:23.235Z,29.10
2019-02-17T03:32:23.232Z,27.30
2019-02-17T03:33:23.219Z,29.40
2019-02-17T03:34:23.236Z,31.20
2019-02-17T03:35:23.191Z,31.10
2019-02-17T03:36:23.186Z,28.50
2019-02-17T03:37:23.194Z,29.00
2019-02-17T03:38:23.156Z,28.60
2019-02-17T03:39:23.189Z,28.60
2019-02-17T03:40:23.146Z,29.70
2019-02-17T03:41:23.124Z,28.10
2019-02-17T03:42:23.150Z,30.70
2019-02-17T03:43:23.099Z,29.00
2019-02-17T03:44:23.094Z,28.60
2019-02-17T03:45:23.081Z,29.60
2019-02-17T03:46:23.077Z,30.90
2019-02-17T03:47:23.061Z,30.10
2019-02-17T03:48:23.053Z,30.30
2019-02-17T03:49:23.047Z,29.10
2019-02-17T03:50:23.027Z,29.00
2019-02-17T03:51:23.020Z,31.70
2019-02-17T03:52:23.026Z,29.80
2019-02-17T03:53:22.998Z,30.20
2019-02-17T03:54:22.985Z,28.30
2019-02-17T03:55:22.996Z,30.60
2019-02-17T03:56:22.955Z,31.00
2019-02-17T03:57:23.007Z,30.50
2019-02-17T03:58:22.941Z,30.10
2019-02-17T03:59:22.933Z,29.70
2019-02-17T04:00:22.929Z,29.80
2019-02-17T04:01:22.905Z,31.90
2019-02-17T04:02:22.899Z,31.30
2019-02-17T04:03:22.915Z,29.60
2019-02-17T04:04:22.873Z,29.00
2019-02-17T04:05:22.872Z,29.60
2019-02-17T04:06:22.905Z,29.40
2019-02-17T04:07:22.838Z,32.30
2019-02-17T04:08:22.854Z,34.00
2019-02-17T04:09:22.839Z,32.60
2019-02-17T04:10:22.833Z,31.30
2019-02-17T04:11:22.803Z,31.20
2019-02-17T04:12:22.823Z,33.00
2019-02-17T04:13:22.779Z,31.40
2019-02-17T04:14:22.791Z,30.60
2019-02-17T04:15:22.769Z,31.70
2019-02-17T04:16:22.744Z,36.10
2019-02-17T04:17:22.782Z,38.20
2019-02-17T04:18:22.750Z,36.70
2019-02-17T04:19:22.713Z,36.40
2019-02-17T04:20:22.720Z,34.80
2019-02-17T04:21:22.720Z,37.80
2019-02-17T04:22:22.686Z,35.20
2019-02-17T04:23:30.756Z,33.20
2019-02-17T04:24:23.649Z,32.80
2019-02-17T04:25:22.664Z,35.70
2019-02-17T04:26:22.635Z,33.50
2019-02-17T04:27:22.625Z,34.30
2019-02-17T04:28:22.646Z,31.70
2019-02-17T04:29:22.617Z,33.40
2019-02-17T04:30:29.245Z,35.60
2019-02-17T04:31:23.584Z,33.20
2019-02-17T04:32:22.612Z,37.80
2019-02-17T04:33:22.639Z,35.90
2019-02-17T04:34:22.557Z,37.90
2019-02-17T04:35:22.535Z,39.10
2019-02-17T04:36:22.534Z,40.70
2019-02-17T04:37:22.523Z,38.70
2019-02-17T04:38:22.541Z,40.40
2019-02-17T04:39:22.500Z,43.90
2019-02-17T04:40:22.493Z,39.90
2019-02-17T04:41:22.499Z,39.80
2019-02-17T04:42:22.466Z,41.20
2019-02-17T04:43:22.459Z,39.30
2019-02-17T04:44:22.452Z,40.10
2019-02-17T04:45:22.427Z,38.00
2019-02-17T04:46:22.425Z,42.20
2019-02-17T04:47:22.446Z,40.90
2019-02-17T04:48:22.399Z,41.80
2019-02-17T04:49:22.413Z,40.80
2019-02-17T04:50:22.380Z,39.80
2019-02-17T04:51:22.394Z,43.50
2019-02-17T04:52:22.350Z,43.60
2019-02-17T04:53:22.349Z,40.60
2019-02-17T04:54:22.365Z,40.30
2019-02-17T04:55:22.331Z,39.50
2019-02-17T04:56:22.332Z,41.80
2019-02-17T04:57:22.305Z,42.40
2019-02-17T04:58:22.307Z,43.10
2019-02-17T04:59:22.305Z,39.20
2019-02-17T05:00:22.269Z,40.00
2019-02-17T05:01:22.289Z,42.40
2019-02-17T05:02:22.244Z,40.80
2019-02-17T05:03:22.239Z,39.90
2019-02-17T05:04:22.230Z,40.40
2019-02-17T05:05:22.223Z,38.20
2019-02-17T05:06:22.227Z,40.70
2019-02-17T05:07:22.195Z,35.90
2019-02-17T05:08:22.188Z,34.60
2019-02-17T05:09:22.172Z,35.60
2019-02-17T05:10:22.161Z,36.90
2019-02-17T05:11:22.172Z,38.80
2019-02-17T05:12:22.156Z,39.10
2019-02-17T05:13:22.157Z,33.20
2019-02-17T05:14:22.153Z,35.70
2019-02-17T05:15:22.111Z,34.20
2019-02-17T05:16:22.092Z,33.60
2019-02-17T05:17:22.123Z,34.80
2019-02-17T05:18:22.096Z,31.70
2019-02-17T05:19:22.063Z,33.40
2019-02-17T05:20:22.048Z,31.60
2019-02-17T05:21:22.037Z,31.50
2019-02-17T05:22:22.046Z,32.20
2019-02-17T05:23:22.056Z,32.50
2019-02-17T05:24:22.016Z,31.70
2019-02-17T05:25:21.993Z,32.00
2019-02-17T05:26:21.990Z,33.10
2019-02-17T05:27:21.983Z,32.10
2019-02-17T05:28:21.972Z,30.80
2019-02-17T05:29:21.959Z,31.80
2019-02-17T05:30:21.947Z,30.60
2019-02-17T05:31:21.939Z,29.00
2019-02-17T05:32:21.919Z,30.50
2019-02-17T05:33:21.949Z,29.50
2019-02-17T05:34:21.922Z,30.70
2019-02-17T05:35:21.912Z,30.40
2019-02-17T05:36:21.965Z,28.40
2019-02-17T05:37:21.902Z,29.30
2019-02-17T05:38:21.891Z,27.10
2019-02-17T05:39:21.860Z,27.50
2019-02-17T05:40:21.853Z,27.10
2019-02-17T05:41:21.826Z,27.80
2019-02-17T05:42:21.816Z,29.40
2019-02-17T05:43:21.830Z,28.90
2019-02-17T05:44:21.846Z,29.90
2019-02-17T05:45:21.814Z,27.30
2019-02-17T05:46:21.776Z,26.90
2019-02-17T05:47:21.797Z,27.40
2019-02-17T05:48:21.757Z,26.50
2019-02-17T05:49:21.737Z,27.20
2019-02-17T05:50:21.747Z,27.70
2019-02-17T05:51:21.721Z,26.90
2019-02-17T05:52:21.716Z,25.90
2019-02-17T05:53:21.697Z,23.50
2019-02-17T05:54:21.695Z,27.40
2019-02-17T05:55:21.700Z,26.20
2019-02-17T05:56:21.722Z,26.60
2019-02-17T05:57:21.665Z,27.80
2019-02-17T05:58:21.652Z,27.30
2019-02-17T05:59:21.656Z,27.30
2019-02-17T06:00:21.623Z,24.60
2019-02-17T06:01:21.619Z,25.00
2019-02-17T06:02:21.609Z,23.90
2019-02-17T06:03:21.612Z,24.50
2019-02-17T06:04:21.578Z,24.90
2019-02-17T06:05:21.574Z,25.10
2019-02-17T06:06:21.559Z,26.30
2019-02-17T06:07:21.565Z,26.90
2019-02-17T06:08:21.541Z,25.20
2019-02-17T06:09:21.567Z,27.10
2019-02-17T06:10:21.551Z,24.50
2019-02-17T06:11:21.507Z,25.60
2019-02-17T06:12:21.495Z,26.60
2019-02-17T06:13:21.512Z,27.40
2019-02-17T06:14:21.477Z,25.40
2019-02-17T06:15:21.491Z,23.60
2019-02-17T06:16:21.464Z,24.60
2019-02-17T06:17:21.453Z,25.30
2019-02-17T06:18:21.430Z,24.40
2019-02-17T06:19:21.427Z,25.90
2019-02-17T06:20:21.439Z,24.70
2019-02-17T06:21:21.397Z,27.80
2019-02-17T06:22:21.420Z,26.30
2019-02-17T06:23:21.376Z,28.40
2019-02-17T06:24:21.363Z,25.40
2019-02-17T06:25:21.365Z,26.20
2019-02-17T06:26:21.340Z,24.90
2019-02-17T06:27:21.343Z,26.10
2019-02-17T06:28:21.318Z,24.40
2019-02-17T06:29:21.308Z,25.20
2019-02-17T06:30:21.315Z,24.70
2019-02-17T06:31:21.319Z,23.30
2019-02-17T06:32:21.293Z,25.10
2019-02-17T06:33:21.266Z,24.40
2019-02-17T06:34:21.260Z,23.40
2019-02-17T06:35:21.242Z,23.90
2019-02-17T06:36:21.284Z,23.70
2019-02-17T06:37:21.238Z,23.80
2019-02-17T06:38:21.229Z,24.50
2019-02-17T06:39:21.213Z,26.10
2019-02-17T06:40:21.205Z,28.00
2019-02-17T06:41:21.229Z,26.20
2019-02-17T06:42:21.171Z,25.50
2019-02-17T06:43:21.161Z,27.00
2019-02-17T06:44:21.147Z,25.90
2019-02-17T06:45:21.144Z,25.90
2019-02-17T06:46:21.187Z,25.10
2019-02-17T06:47:21.124Z,25.20
2019-02-17T06:48:21.118Z,25.10
2019-02-17T06:49:21.117Z,25.00
2019-02-17T06:50:21.099Z,26.00
2019-02-17T06:51:21.100Z,24.90
2019-02-17T06:52:21.066Z,26.00
2019-02-17T06:53:21.058Z,26.60
2019-02-17T06:54:21.055Z,26.60
2019-02-17T06:55:21.028Z,25.30
2019-02-17T06:56:21.028Z,24.00
2019-02-17T06:57:21.021Z,26.70
2019-02-17T06:58:20.991Z,25.60
2019-02-17T06:59:20.996Z,25.20
2019-02-17T07:00:20.989Z,24.60
2019-02-17T07:01:24.648Z,25.10
2019-02-17T07:02:20.959Z,24.00
2019-02-17T07:03:20.967Z,26.00
2019-02-17T07:04:20.950Z,25.40
2019-02-17T07:05:20.956Z,23.10
2019-02-17T07:06:20.929Z,23.90
2019-02-17T07:07:20.930Z,24.00
2019-02-17T07:08:20.896Z,24.60
2019-02-17T07:09:20.878Z,26.30
2019-02-17T07:10:20.880Z,24.70
2019-02-17T07:11:20.903Z,25.00
2019-02-17T07:12:20.873Z,22.90
2019-02-17T07:13:20.837Z,22.70
2019-02-17T07:14:20.824Z,24.70
2019-02-17T07:15:20.815Z,23.10
2019-02-17T07:16:20.803Z,23.60
2019-02-17T07:17:20.819Z,24.60
2019-02-17T07:18:20.783Z,23.70
2019-02-17T07:19:20.774Z,23.10
2019-02-17T07:20:20.768Z,23.00
2019-02-17T07:21:20.744Z,22.80
2019-02-17T07:22:20.758Z,24.90
2019-02-17T07:23:20.756Z,25.80
2019-02-17T07:24:20.722Z,27.00
2019-02-17T07:25:29.580Z,24.20
2019-02-17T07:26:21.726Z,27.30
2019-02-17T07:27:20.717Z,29.20
2019-02-17T07:28:20.685Z,26.20
2019-02-17T07:29:20.664Z,26.30
2019-02-17T07:30:20.655Z,27.90
2019-02-17T07:31:22.532Z,31.20
2019-02-17T07:32:20.674Z,32.80
2019-02-17T07:33:20.627Z,32.60
2019-02-17T07:34:20.625Z,34.10
2019-02-17T07:35:20.597Z,33.20
2019-02-17T07:36:22.114Z,32.90
2019-02-17T07:37:20.584Z,38.10
2019-02-17T07:38:20.634Z,52.10
2019-02-17T07:39:20.557Z,42.70
2019-02-17T07:40:20.537Z,53.90
2019-02-17T07:41:20.535Z,51.30
2019-02-17T07:42:20.524Z,44.00
2019-02-17T07:43:20.553Z,38.20
2019-02-17T07:44:20.493Z,41.90
2019-02-17T07:45:20.487Z,41.00
2019-02-17T07:46:20.477Z,35.00
2019-02-17T07:47:20.487Z,31.80
2019-02-17T07:48:20.462Z,33.40
2019-02-17T07:49:20.464Z,29.90
2019-02-17T07:50:20.433Z,27.00
2019-02-17T07:51:20.423Z,28.60
2019-02-17T07:52:20.420Z,27.90
2019-02-17T07:53:20.407Z,28.50
2019-02-17T07:54:20.393Z,27.40
2019-02-17T07:55:20.395Z,28.30
2019-02-17T07:56:20.375Z,28.70
2019-02-17T07:57:20.384Z,27.50
2019-02-17T07:58:20.340Z,27.20
2019-02-17T07:59:20.337Z,27.50
2019-02-17T08:00:20.354Z,25.20
2019-02-17T08:01:20.336Z,25.10
2019-02-17T08:02:20.310Z,26.80
2019-02-17T08:03:20.311Z,25.90
2019-02-17T08:04:20.294Z,24.50
2019-02-17T08:05:20.289Z,23.70
2019-02-17T08:06:20.327Z,24.50
2019-02-17T08:07:20.248Z,23.90
2019-02-17T08:08:20.259Z,23.70
2019-02-17T08:09:20.247Z,24.60
2019-02-17T08:10:20.210Z,24.20
2019-02-17T08:11:20.202Z,25.60
2019-02-17T08:12:20.194Z,25.40
2019-02-17T08:13:20.208Z,23.10
2019-02-17T08:14:20.189Z,25.80
2019-02-17T08:15:20.166Z,26.00
2019-02-17T08:16:20.145Z,25.90
2019-02-17T08:17:20.135Z,25.90
2019-02-17T08:18:20.143Z,26.00
2019-02-17T08:19:20.132Z,29.30
2019-02-17T08:20:20.109Z,27.60
2019-02-17T08:21:20.096Z,28.30
2019-02-17T08:22:20.143Z,25.40
2019-02-17T08:23:20.076Z,26.80
2019-02-17T08:24:20.055Z,25.50
2019-02-17T08:25:22.124Z,27.00
2019-02-17T08:26:20.039Z,28.10
2019-02-17T08:27:20.022Z,27.50
2019-02-17T08:28:20.026Z,28.00
2019-02-17T08:29:20.046Z,26.50
2019-02-17T08:30:20.016Z,26.60
2019-02-17T08:31:20.003Z,24.70
2019-02-17T08:32:19.972Z,27.60
2019-02-17T08:33:19.984Z,29.60
2019-02-17T08:34:19.958Z,31.10
2019-02-17T08:35:19.937Z,31.00
2019-02-17T08:36:19.943Z,31.70
2019-02-17T08:37:19.911Z,28.30
2019-02-17T08:38:19.901Z,30.20
2019-02-17T08:39:19.894Z,30.00
2019-02-17T08:40:19.889Z,30.30
2019-02-17T08:41:19.924Z,30.20
2019-02-17T08:42:19.861Z,28.90
2019-02-17T08:43:19.864Z,28.20
2019-02-17T08:44:19.845Z,27.10
2019-02-17T08:45:19.829Z,24.00
2019-02-17T08:46:19.840Z,24.40
2019-02-17T08:47:19.811Z,24.90
2019-02-17T08:48:19.831Z,24.20
2019-02-17T08:49:19.804Z,23.00
2019-02-17T08:50:20.134Z,22.90
2019-02-17T08:51:19.770Z,23.40
2019-02-17T08:52:19.750Z,21.60
2019-02-17T08:53:19.747Z,23.10
2019-02-17T08:54:19.764Z,22.90
2019-02-17T08:55:19.738Z,20.50
2019-02-17T08:56:19.747Z,21.70
2019-02-17T08:57:19.705Z,19.40
2019-02-17T08:58:19.706Z,20.70
2019-02-17T08:59:19.689Z,18.80
2019-02-17T09:00:19.670Z,20.30
2019-02-17T09:01:19.669Z,18.90
2019-02-17T09:02:19.636Z,18.10
2019-02-17T09:03:19.676Z,17.80
2019-02-17T09:04:19.633Z,18.80
2019-02-17T09:05:19.630Z,16.80
2019-02-17T09:06:19.609Z,15.80
2019-02-17T09:07:19.599Z,18.00
2019-02-17T09:08:19.588Z,16.10
2019-02-17T09:09:19.585Z,14.30
2019-02-17T09:10:19.561Z,13.70
2019-02-17T09:11:19.574Z,13.40
2019-02-17T09:12:19.527Z,15.90
2019-02-17T09:13:19.523Z,13.40
2019-02-17T09:14:19.527Z,13.20
2019-02-17T09:15:19.504Z,12.30
2019-02-17T09:16:19.494Z,12.40
2019-02-17T09:17:19.514Z,11.40
2019-02-17T09:18:19.479Z,10.80
2019-02-17T09:19:19.463Z,12.30
2019-02-17T09:20:19.455Z,12.70
2019-02-17T09:21:19.438Z,12.60
2019-02-17T09:22:19.429Z,12.90
2019-02-17T09:23:19.408Z,12.60
2019-02-17T09:24:19.400Z,13.60
2019-02-17T09:25:19.406Z,11.10
2019-02-17T09:26:19.385Z,11.00
2019-02-17T09:27:19.363Z,12.50
2019-02-17T09:28:19.378Z,9.10
2019-02-17T09:29:19.350Z,9.50
2019-02-17T09:30:19.364Z,7.80
2019-02-17T09:31:19.337Z,8.70
2019-02-17T09:32:19.309Z,7.50
2019-02-17T09:33:19.325Z,7.60
2019-02-17T09:34:19.329Z,7.00
2019-02-17T09:35:19.290Z,6.70
2019-02-17T09:36:19.274Z,6.50
2019-02-17T09:37:19.260Z,8.60
2019-02-17T09:38:19.278Z,7.10
2019-02-17T09:39:19.234Z,7.10
2019-02-17T09:40:19.266Z,9.40
2019-02-17T09:41:19.234Z,8.90
2019-02-17T09:42:19.215Z,7.80
2019-02-17T09:43:19.193Z,8.40
2019-02-17T09:44:19.193Z,7.20
2019-02-17T09:45:19.166Z,6.30
2019-02-17T09:46:19.159Z,6.10
2019-02-17T09:47:19.161Z,7.20
2019-02-17T09:48:19.133Z,7.40
2019-02-17T09:49:19.139Z,7.00
2019-02-17T09:50:19.124Z,6.10
2019-02-17T09:51:19.111Z,6.20
2019-02-17T09:52:19.128Z,5.70
2019-02-17T09:53:19.143Z,6.30
2019-02-17T09:54:19.072Z,5.50
2019-02-17T09:55:19.070Z,5.60
2019-02-17T09:56:19.091Z,6.10
2019-02-17T09:57:19.064Z,6.30
2019-02-17T09:58:19.022Z,5.90
2019-02-17T09:59:19.065Z,6.30
2019-02-17T10:00:19.004Z,6.00
2019-02-17T10:01:18.984Z,5.80
2019-02-17T10:02:26.343Z,6.10
2019-02-17T10:03:19.968Z,6.10
2019-02-17T10:04:18.952Z,6.60
2019-02-17T10:05:18.981Z,5.90
2019-02-17T10:06:18.943Z,6.50
2019-02-17T10:07:18.936Z,6.50
2019-02-17T10:08:18.915Z,6.50
2019-02-17T10:09:18.896Z,5.70
2019-02-17T10:10:18.892Z,7.60
2019-02-17T10:11:18.883Z,6.10
2019-02-17T10:12:18.911Z,7.00
2019-02-17T10:13:18.870Z,6.60
2019-02-17T10:14:18.881Z,9.10
2019-02-17T10:15:18.859Z,7.00
2019-02-17T10:16:18.837Z,8.80
2019-02-17T10:17:18.823Z,9.70
2019-02-17T10:18:18.819Z,7.80
2019-02-17T10:19:18.786Z,19.00
2019-02-17T10:20:18.783Z,15.90
2019-02-17T10:21:18.763Z,12.90
2019-02-17T10:22:18.768Z,7.10
2019-02-17T10:23:18.770Z,6.50
2019-02-17T10:24:18.741Z,6.30
2019-02-17T10:25:18.736Z,6.80
2019-02-17T10:26:18.717Z,7.10
2019-02-17T10:27:18.725Z,6.60
2019-02-17T10:28:18.694Z,7.90
2019-02-17T10:29:18.682Z,6.80
2019-02-17T10:30:18.676Z,6.70
2019-02-17T10:31:18.679Z,6.50
2019-02-17T10:32:18.713Z,6.20
2019-02-17T10:33:18.640Z,7.60
2019-02-17T10:34:18.642Z,7.80
2019-02-17T10:35:18.630Z,6.70
2019-02-17T10:36:18.606Z,6.50
2019-02-17T10:37:18.606Z,6.70
2019-02-17T10:38:18.611Z,6.50
2019-02-17T10:39:18.577Z,6.80
2019-02-17T10:40:18.577Z,6.60
2019-02-17T10:41:18.551Z,8.40
2019-02-17T10:42:18.571Z,6.30
2019-02-17T10:43:18.536Z,7.50
2019-02-17T10:44:18.529Z,6.80
2019-02-17T10:45:18.534Z,6.60
2019-02-17T10:46:18.500Z,6.50
2019-02-17T10:47:18.518Z,6.10
2019-02-17T10:48:18.477Z,7.00
2019-02-17T10:49:19.403Z,7.30
2019-02-17T10:50:19.213Z,7.10
2019-02-17T10:51:18.442Z,6.40
2019-02-17T10:52:18.430Z,6.90
2019-02-17T10:53:18.442Z,6.50
2019-02-17T10:54:18.409Z,6.40
2019-02-17T10:55:18.398Z,6.10
2019-02-17T10:56:18.378Z,6.40
2019-02-17T10:57:18.380Z,6.70
2019-02-17T10:58:18.381Z,7.10
2019-02-17T10:59:18.369Z,6.10
2019-02-17T11:00:18.341Z,7.70
2019-02-17T11:01:18.349Z,7.90
2019-02-17T11:02:18.320Z,6.30
2019-02-17T11:03:18.328Z,6.50
2019-02-17T11:04:18.294Z,5.80
2019-02-17T11:05:18.295Z,7.10
2019-02-17T11:06:18.293Z,5.80
2019-02-17T11:07:18.263Z,6.50
2019-02-17T11:08:18.276Z,5.60
2019-02-17T11:09:18.258Z,5.80
2019-02-17T11:10:18.229Z,6.50
2019-02-17T11:11:18.211Z,6.10
2019-02-17T11:12:18.210Z,5.20
2019-02-17T11:13:18.213Z,5.80
2019-02-17T11:14:18.177Z,5.10
2019-02-17T11:15:18.195Z,5.50
2019-02-17T11:16:18.176Z,6.60
2019-02-17T11:17:18.143Z,6.20
2019-02-17T11:18:18.150Z,4.40
2019-02-17T11:19:18.128Z,5.40
2019-02-17T11:20:18.124Z,4.50
2019-02-17T11:21:18.143Z,5.60
2019-02-17T11:22:23.080Z,7.70
2019-02-17T11:23:19.080Z,6.10
2019-02-17T11:24:18.083Z,5.90
2019-02-17T11:25:18.071Z,6.70
2019-02-17T11:26:18.046Z,6.00
2019-02-17T11:27:18.097Z,5.20
2019-02-17T11:28:18.021Z,4.60
2019-02-17T11:29:18.007Z,5.50
2019-02-17T11:30:18.023Z,5.60
2019-02-17T11:31:18.028Z,5.50
2019-02-17T11:32:17.974Z,6.00
2019-02-17T11:33:17.968Z,5.00
2019-02-17T11:34:17.955Z,4.30
2019-02-17T11:35:17.972Z,5.10
2019-02-17T11:36:18.003Z,6.40
2019-02-17T11:37:17.936Z,8.00
2019-02-17T11:38:17.978Z,8.00
2019-02-17T11:39:17.908Z,6.60
2019-02-17T11:40:17.893Z,5.90
2019-02-17T11:41:17.907Z,5.50
2019-02-17T11:42:17.872Z,5.00
2019-02-17T11:43:17.877Z,5.50
2019-02-17T11:44:17.848Z,6.00
2019-02-17T11:45:17.872Z,6.20
2019-02-17T11:46:17.817Z,4.70
2019-02-17T11:47:17.819Z,4.90
2019-02-17T11:48:17.812Z,5.00
2019-02-17T11:49:17.811Z,5.20
2019-02-17T11:50:17.787Z,5.50
2019-02-17T11:51:17.780Z,5.00
2019-02-17T11:52:17.751Z,6.80
2019-02-17T11:53:17.753Z,4.80
2019-02-17T11:54:17.775Z,6.00
2019-02-17T11:55:17.722Z,5.00
2019-02-17T11:56:17.703Z,5.50
2019-02-17T11:57:17.727Z,4.80
2019-02-17T11:58:17.685Z,6.10
2019-02-17T11:59:17.680Z,5.80
2019-02-17T12:00:17.678Z,4.60
2019-02-17T12:01:17.649Z,4.50
2019-02-17T12:02:24.708Z,4.90
2019-02-17T12:03:18.627Z,4.80
2019-02-17T12:04:17.621Z,5.50
2019-02-17T12:05:17.644Z,6.20
2019-02-17T12:06:17.634Z,5.00
2019-02-17T12:07:17.581Z,4.90
2019-02-17T12:08:17.578Z,6.20
2019-02-17T12:09:17.574Z,5.40
2019-02-17T12:10:17.548Z,4.20
2019-02-17T12:11:17.541Z,4.70
2019-02-17T12:12:17.538Z,4.40
2019-02-17T12:13:17.519Z,5.20
2019-02-17T12:14:17.513Z,4.00
2019-02-17T12:15:17.529Z,5.80
2019-02-17T12:16:17.518Z,4.80
2019-02-17T12:17:17.476Z,5.80
2019-02-17T12:18:17.457Z,4.50
2019-02-17T12:19:17.495Z,4.70
2019-02-17T12:20:17.440Z,5.50
2019-02-17T12:21:17.505Z,4.20
2019-02-17T12:22:17.413Z,5.80
2019-02-17T12:23:17.418Z,6.00
2019-02-17T12:24:17.427Z,5.90
2019-02-17T12:25:17.399Z,5.20
2019-02-17T12:26:17.389Z,5.50
2019-02-17T12:27:17.366Z,6.70
2019-02-17T12:28:17.351Z,5.10
2019-02-17T12:29:17.341Z,6.00
2019-02-17T12:30:17.356Z,4.50
2019-02-17T12:31:17.314Z,5.00
2019-02-17T12:32:17.305Z,5.60
2019-02-17T12:33:20.554Z,4.60
2019-02-17T12:34:17.279Z,5.80
2019-02-17T12:35:17.283Z,6.60
2019-02-17T12:36:17.288Z,4.90
2019-02-17T12:37:17.247Z,5.30
2019-02-17T12:38:17.260Z,5.50
2019-02-17T12:39:17.228Z,5.30
2019-02-17T12:40:17.225Z,5.60
2019-02-17T12:41:17.220Z,5.10
2019-02-17T12:42:17.225Z,6.90
2019-02-17T12:43:17.178Z,4.80
2019-02-17T12:44:17.173Z,4.50
2019-02-17T12:45:18.336Z,5.00
2019-02-17T12:46:17.152Z,5.80
2019-02-17T12:47:17.176Z,5.20
2019-02-17T12:48:17.136Z,4.80
2019-02-17T12:49:17.109Z,5.70
2019-02-17T12:50:17.106Z,6.10
2019-02-17T12:51:17.098Z,4.40
2019-02-17T12:52:17.104Z,4.60
2019-02-17T12:53:17.104Z,4.00
2019-02-17T12:54:17.086Z,4.50
2019-02-17T12:55:17.045Z,5.00
2019-02-17T12:56:17.048Z,4.70
2019-02-17T12:57:17.090Z,5.30
2019-02-17T12:58:17.016Z,4.70
2019-02-17T12:59:17.013Z,3.30
2019-02-17T13:00:17.009Z,3.90